createdAt,value
2022-10-09T00:01:24.361Z,99391.13
2022-10-09T00:03:54.142Z,99395.00
2022-10-09T00:06:28.425Z,99386.59
2022-10-09T00:08:54.917Z,99383.91
2022-10-09T00:11:26.171Z,99386.91
2022-10-09T00:13:55.273Z,99381.81
2022-10-09T00:16:23.591Z,99389.91
2022-10-09T00:18:51.203Z,99388.94
2022-10-09T00:21:26.445Z,99386.13
2022-10-09T00:23:56.464Z,99389.16
2022-10-09T00:26:24.379Z,99387.31
2022-10-09T00:28:50.977Z,99387.84
2022-10-09T00:31:18.658Z,99388.13
2022-10-09T00:33:45.437Z,99392.78
2022-10-09T00:36:31.220Z,99391.69
2022-10-09T00:38:57.838Z,99394.13
2022-10-09T00:41:29.729Z,99394.69
2022-10-09T00:43:59.450Z,99396.31
2022-10-09T00:46:34.476Z,99398.47
2022-10-09T00:49:30.812Z,99392.31
2022-10-09T00:52:01.813Z,99388.66
2022-10-09T00:54:37.093Z,99400.59
2022-10-09T00:57:03.826Z,99403.44
2022-10-09T00:59:31.845Z,99392.19
2022-10-09T01:01:58.481Z,99398.44
2022-10-09T01:04:25.203Z,99395.78
2022-10-09T01:07:27.776Z,99387.94
2022-10-09T01:09:59.607Z,99403.16
2022-10-09T01:12:49.035Z,99394.44
2022-10-09T01:15:33.354Z,99397.94
2022-10-09T01:18:31.937Z,99400.59
2022-10-09T01:21:11.583Z,99396.56
2022-10-09T01:24:09.082Z,99393.09
2022-10-09T01:27:05.717Z,99391.59
2022-10-09T01:29:40.185Z,99389.63
2022-10-09T01:32:12.908Z,99383.59
2022-10-09T01:34:42.583Z,99383.72
2022-10-09T01:37:12.915Z,99381.22
2022-10-09T01:39:42.791Z,99382.03
2022-10-09T01:42:13.836Z,99382.47
2022-10-09T01:44:41.206Z,99374.59
2022-10-09T01:47:15.872Z,99387.94
2022-10-09T01:50:14.804Z,99377.59
2022-10-09T01:52:52.090Z,99380.75
2022-10-09T01:55:43.915Z,99379.19
2022-10-09T01:58:19.022Z,99379.56
2022-10-09T02:01:11.146Z,99376.97
2022-10-09T02:03:42.544Z,99372.63
2022-10-09T02:06:15.214Z,99369.94
2022-10-09T02:08:45.464Z,99364.00
2022-10-09T02:11:15.090Z,99364.09
2022-10-09T02:13:43.987Z,99365.66
2022-10-09T02:16:18.681Z,99358.69
2022-10-09T02:18:55.849Z,99357.97
2022-10-09T02:21:29.167Z,99362.47
2022-10-09T02:23:58.743Z,99365.91
2022-10-09T02:26:26.803Z,99372.66
2022-10-09T02:28:54.065Z,99371.41
2022-10-09T02:31:31.308Z,99368.72
2022-10-09T02:34:08.841Z,99370.13
2022-10-09T02:36:36.555Z,99368.34
2022-10-09T02:39:06.207Z,99365.81
2022-10-09T02:41:33.496Z,99372.66
2022-10-09T02:44:00.552Z,99361.31
2022-10-09T02:46:27.008Z,99367.81
2022-10-09T02:48:53.935Z,99363.53
2022-10-09T02:51:20.650Z,99361.97
2022-10-09T02:53:47.355Z,99371.88
2022-10-09T02:56:13.831Z,99371.81
2022-10-09T02:58:40.580Z,99364.56
2022-10-09T03:01:07.635Z,99366.66
2022-10-09T03:03:34.140Z,99368.88
2022-10-09T03:06:13.734Z,99368.09
2022-10-09T03:08:44.473Z,99371.34
2022-10-09T03:11:12.202Z,99366.25
2022-10-09T03:13:39.647Z,99365.16
2022-10-09T03:16:12.898Z,99365.22
2022-10-09T03:18:40.527Z,99362.22
2022-10-09T03:21:10.286Z,99368.34
2022-10-09T03:23:37.907Z,99367.81
2022-10-09T03:26:11.651Z,99365.00
2022-10-09T03:28:42.129Z,99358.22
2022-10-09T03:31:22.373Z,99368.69
2022-10-09T03:33:57.341Z,99364.63
2022-10-09T03:36:24.367Z,99357.06
2022-10-09T03:38:50.880Z,99355.28
2022-10-09T03:41:17.315Z,99357.00
2022-10-09T03:43:43.781Z,99355.31
2022-10-09T03:46:11.201Z,99359.25
2022-10-09T03:48:38.233Z,99357.59
2022-10-09T03:51:04.842Z,99360.13
2022-10-09T03:53:31.550Z,99353.25
2022-10-09T03:55:58.032Z,99359.31
2022-10-09T03:58:24.994Z,99356.59
2022-10-09T04:00:52.806Z,99354.34
2022-10-09T04:03:20.811Z,99349.19
2022-10-09T04:05:47.780Z,99359.13
2022-10-09T04:08:14.293Z,99349.53
2022-10-09T04:10:40.873Z,99351.56
2022-10-09T04:13:07.319Z,99355.38
2022-10-09T04:15:35.152Z,99355.66
2022-10-09T04:18:01.707Z,99349.75
2022-10-09T04:20:28.372Z,99354.06
2022-10-09T04:22:54.822Z,99350.44
2022-10-09T04:25:21.326Z,99355.66
2022-10-09T04:27:47.736Z,99352.19
2022-10-09T04:30:14.191Z,99350.56
2022-10-09T04:32:40.618Z,99340.22
2022-10-09T04:35:07.727Z,99341.00
2022-10-09T04:37:36.522Z,99345.41
2022-10-09T04:40:03.895Z,99344.78
2022-10-09T04:42:30.523Z,99345.31
2022-10-09T04:44:56.972Z,99345.16
2022-10-09T04:47:24.180Z,99342.47
2022-10-09T04:49:50.650Z,99337.88
2022-10-09T04:52:17.108Z,99337.88
2022-10-09T04:54:43.571Z,99342.25
2022-10-09T04:57:10.004Z,99332.75
2022-10-09T04:59:36.479Z,99338.78
2022-10-09T05:02:03.631Z,99340.44
2022-10-09T05:04:30.300Z,99342.91
2022-10-09T05:06:56.748Z,99336.13
2022-10-09T05:09:23.245Z,99333.41
2022-10-09T05:11:49.818Z,99339.34
2022-10-09T05:14:16.573Z,99339.53
2022-10-09T05:17:08.152Z,99340.72
2022-10-09T05:19:29.624Z,99335.06
2022-10-09T05:21:56.137Z,99335.19
2022-10-09T05:24:22.594Z,99333.38
2022-10-09T05:26:49.055Z,99332.44
2022-10-09T05:29:15.537Z,99329.94
2022-10-09T05:31:48.370Z,99326.66
2022-10-09T05:34:16.208Z,99334.75
2022-10-09T05:36:42.763Z,99329.63
2022-10-09T05:39:09.213Z,99325.88
2022-10-09T05:41:35.655Z,99330.22
2022-10-09T05:44:04.362Z,99326.75
2022-10-09T05:46:30.941Z,99324.13
2022-10-09T05:49:01.800Z,99332.66
2022-10-09T05:51:31.542Z,99321.41
2022-10-09T05:53:59.719Z,99331.03
2022-10-09T05:56:35.895Z,99326.97
2022-10-09T05:59:06.607Z,99330.75
2022-10-09T06:01:42.545Z,99327.19
2022-10-09T06:04:15.527Z,99323.81
2022-10-09T06:06:42.779Z,99320.66
2022-10-09T06:09:11.750Z,99324.63
2022-10-09T06:11:40.408Z,99323.41
2022-10-09T06:14:09.953Z,99325.91
2022-10-09T06:16:40.935Z,99322.34
2022-10-09T06:19:11.741Z,99323.91
2022-10-09T06:21:38.300Z,99327.16
2022-10-09T06:24:05.965Z,99330.75
2022-10-09T06:26:33.769Z,99331.78
2022-10-09T06:29:02.380Z,99328.28
2022-10-09T06:31:32.574Z,99325.75
2022-10-09T06:34:01.900Z,99331.22
2022-10-09T06:36:32.453Z,99324.38
2022-10-09T06:39:01.529Z,99326.19
2022-10-09T06:41:29.981Z,99334.06
2022-10-09T06:44:02.562Z,99329.88
2022-10-09T06:46:36.198Z,99329.09
2022-10-09T06:49:04.472Z,99329.94
2022-10-09T06:51:33.736Z,99333.22
2022-10-09T06:54:04.601Z,99332.81
2022-10-09T06:56:32.320Z,99323.66
2022-10-09T06:59:07.064Z,99336.63
2022-10-09T07:01:34.277Z,99328.63
2022-10-09T07:04:06.823Z,99333.84
2022-10-09T07:06:38.499Z,99324.22
2022-10-09T07:09:08.690Z,99329.50
2022-10-09T07:11:38.447Z,99330.38
2022-10-09T07:14:08.272Z,99333.63
2022-10-09T07:16:38.894Z,99323.06
2022-10-09T07:19:08.360Z,99324.84
2022-10-09T07:21:35.786Z,99336.19
2022-10-09T07:24:04.293Z,99333.63
2022-10-09T07:26:34.122Z,99337.88
2022-10-09T07:29:01.276Z,99343.94
2022-10-09T07:31:27.971Z,99337.81
2022-10-09T07:33:56.769Z,99337.78
2022-10-09T07:36:23.897Z,99346.28
2022-10-09T07:38:57.845Z,99341.75
2022-10-09T07:41:28.657Z,99334.56
2022-10-09T07:43:56.086Z,99338.72
2022-10-09T07:46:27.615Z,99339.50
2022-10-09T07:48:56.278Z,99336.56
2022-10-09T07:51:29.168Z,99338.13
2022-10-09T07:53:57.284Z,99332.47
2022-10-09T07:56:29.297Z,99327.81
2022-10-09T07:58:59.585Z,99324.97
2022-10-09T08:01:30.105Z,99324.41
2022-10-09T08:03:58.992Z,99323.94
2022-10-09T08:06:26.575Z,99322.78
2022-10-09T08:08:56.374Z,99330.47
2022-10-09T08:11:25.744Z,99327.00
2022-10-09T08:13:53.694Z,99324.94
2022-10-09T08:16:23.278Z,99328.91
2022-10-09T08:18:54.728Z,99324.03
2022-10-09T08:21:21.235Z,99320.22
2022-10-09T08:23:47.727Z,99316.06
2022-10-09T08:26:22.593Z,99317.38
2022-10-09T08:29:04.403Z,99308.09
2022-10-09T08:31:32.142Z,99313.75
2022-10-09T08:34:02.803Z,99310.59
2022-10-09T08:36:30.456Z,99309.94
2022-10-09T08:38:57.311Z,99302.53
2022-10-09T08:41:48.872Z,99305.94
2022-10-09T08:44:24.429Z,99303.88
2022-10-09T08:47:03.712Z,99304.34
2022-10-09T08:49:50.444Z,99300.38
2022-10-09T08:52:50.477Z,99300.41
2022-10-09T08:55:25.727Z,99291.09
2022-10-09T08:57:56.597Z,99288.69
2022-10-09T09:00:29.138Z,99281.13
2022-10-09T09:03:12.805Z,99284.03
2022-10-09T09:06:09.616Z,99268.63
2022-10-09T09:09:07.613Z,99271.78
2022-10-09T09:12:17.689Z,99266.94
2022-10-09T09:15:07.438Z,99274.41
2022-10-09T09:17:54.176Z,99267.06
2022-10-09T09:20:53.073Z,99260.47
2022-10-09T09:23:34.172Z,99261.44
2022-10-09T09:26:02.053Z,99260.66
2022-10-09T09:28:34.585Z,99260.78
2022-10-09T09:31:35.491Z,99258.31
2022-10-09T09:34:12.947Z,99264.63
2022-10-09T09:36:44.857Z,99256.16
2022-10-09T09:42:14.650Z,99252.63
2022-10-09T09:45:02.977Z,99258.22
2022-10-09T09:47:48.824Z,99250.06
2022-10-09T09:50:42.237Z,99240.94
2022-10-09T09:53:20.667Z,99230.13
2022-10-09T09:55:53.606Z,99223.00
2022-10-09T09:58:21.853Z,99228.03
2022-10-09T10:01:00.840Z,99222.31
2022-10-09T10:03:29.152Z,99226.50
2022-10-09T10:05:55.727Z,99221.19
2022-10-09T10:08:34.538Z,99217.03
2022-10-09T10:11:06.912Z,99209.88
2022-10-09T10:13:39.039Z,99210.56
2022-10-09T10:16:09.251Z,99203.97
2022-10-09T10:18:42.885Z,99194.25
2022-10-09T10:21:14.896Z,99193.59
2022-10-09T10:23:59.144Z,99193.84
2022-10-09T10:26:58.295Z,99193.50
2022-10-09T10:29:43.835Z,99190.94
2022-10-09T10:32:34.770Z,99178.72
2022-10-09T10:35:29.456Z,99180.22
2022-10-09T10:38:06.242Z,99176.72
2022-10-09T10:40:56.641Z,99175.78
2022-10-09T10:43:50.476Z,99170.19
2022-10-09T10:46:30.997Z,99169.47
2022-10-09T10:49:01.474Z,99159.72
2022-10-09T10:51:46.577Z,99158.97
2022-10-09T10:54:22.286Z,99156.56
2022-10-09T10:56:59.365Z,99156.13
2022-10-09T10:59:51.407Z,99153.41
2022-10-09T11:02:52.507Z,99153.13
2022-10-09T11:05:35.590Z,99147.84
2022-10-09T11:08:40.518Z,99138.13
2022-10-09T11:11:29.417Z,99138.03
2022-10-09T11:14:25.938Z,99133.59
2022-10-09T11:17:42.440Z,99125.78
2022-10-09T11:20:41.667Z,99126.75
2022-10-09T11:23:55.727Z,99123.63
2022-10-09T11:26:37.634Z,99110.59
2022-10-09T11:29:19.584Z,99113.59
2022-10-09T11:31:55.818Z,99102.00
2022-10-09T11:34:42.718Z,99098.66
2022-10-09T11:37:20.317Z,99092.22
2022-10-09T11:39:46.972Z,99096.44
2022-10-09T11:42:23.816Z,99084.72
2022-10-09T11:45:14.351Z,99083.97
2022-10-09T11:48:08.614Z,99073.84
2022-10-09T11:51:12.535Z,99078.72
2022-10-09T11:53:40.040Z,99066.47
2022-10-09T11:56:23.983Z,99060.84
2022-10-09T11:59:04.059Z,99065.59
2022-10-09T12:01:42.910Z,99047.44
2022-10-09T12:04:12.167Z,99043.81
2022-10-09T12:06:55.685Z,99052.16
2022-10-09T12:09:36.248Z,99032.03
2022-10-09T12:12:23.633Z,99041.19
2022-10-09T12:14:52.939Z,99023.34
2022-10-09T12:17:22.354Z,99016.47
2022-10-09T12:19:58.558Z,99017.00
2022-10-09T12:23:13.946Z,99006.22
2022-10-09T12:25:45.505Z,99008.13
2022-10-09T12:28:27.867Z,99003.16
2022-10-09T12:30:57.805Z,99007.16
2022-10-09T12:33:34.939Z,99002.53
2022-10-09T12:36:30.020Z,99003.97
2022-10-09T12:38:56.651Z,99000.28
2022-10-09T12:41:34.280Z,98996.25
2022-10-09T12:44:02.331Z,98996.75
2022-10-09T12:46:39.153Z,98987.97
2022-10-09T12:49:20.426Z,98977.66
2022-10-09T12:51:58.455Z,98974.03
2022-10-09T12:54:27.636Z,98972.41
2022-10-09T12:56:57.842Z,98970.56
2022-10-09T12:59:28.547Z,98965.19
2022-10-09T13:02:00.029Z,98957.16
2022-10-09T13:04:32.065Z,98953.97
2022-10-09T13:07:17.283Z,98953.13
2022-10-09T13:09:43.895Z,98946.66
2022-10-09T13:12:22.519Z,98952.81
2022-10-09T13:14:53.171Z,98954.56
2022-10-09T13:17:39.097Z,98950.50
2022-10-09T13:20:11.715Z,98946.13
2022-10-09T13:22:39.734Z,98948.03
2022-10-09T13:25:07.250Z,98947.28
2022-10-09T13:27:39.039Z,98935.53
2022-10-09T13:30:07.352Z,98938.19
2022-10-09T13:32:33.803Z,98931.09
2022-10-09T13:35:00.259Z,98932.25
2022-10-09T13:37:27.765Z,98928.22
2022-10-09T13:39:57.255Z,98924.88
2022-10-09T13:42:36.913Z,98931.06
2022-10-09T13:45:05.406Z,98919.19
2022-10-09T13:47:31.984Z,98924.88
2022-10-09T13:49:58.996Z,98919.59
2022-10-09T13:52:25.634Z,98916.81
2022-10-09T13:54:52.280Z,98907.75
2022-10-09T13:57:18.939Z,98910.31
2022-10-09T13:59:45.680Z,98907.34
2022-10-09T14:02:12.619Z,98901.28
2022-10-09T14:04:39.229Z,98897.00
2022-10-09T14:07:05.666Z,98888.91
2022-10-09T14:09:32.163Z,98888.28
2022-10-09T14:11:58.817Z,98880.25
2022-10-09T14:14:25.246Z,98879.00
2022-10-09T14:16:51.800Z,98879.50
2022-10-09T14:19:18.306Z,98878.44
2022-10-09T14:21:46.679Z,98872.41
2022-10-09T14:24:14.318Z,98864.16
2022-10-09T14:26:41.167Z,98861.59
2022-10-09T14:29:07.727Z,98855.84
2022-10-09T14:31:34.150Z,98855.38
2022-10-09T14:34:00.669Z,98856.22
2022-10-09T14:36:28.175Z,98850.09
2022-10-09T14:38:55.590Z,98847.91
2022-10-09T14:41:22.686Z,98844.44
2022-10-09T14:43:57.633Z,98842.16
2022-10-09T14:46:25.736Z,98842.41
2022-10-09T14:48:55.571Z,98831.34
2022-10-09T14:51:25.889Z,98830.50
2022-10-09T14:53:59.082Z,98826.03
2022-10-09T14:56:27.564Z,98826.41
2022-10-09T14:58:54.660Z,98822.41
2022-10-09T15:01:22.826Z,98819.53
2022-10-09T15:03:49.566Z,98820.72
2022-10-09T15:06:24.115Z,98808.94
2022-10-09T15:08:55.935Z,98815.31
2022-10-09T15:11:23.200Z,98807.03
2022-10-09T15:13:49.669Z,98811.59
2022-10-09T15:16:19.247Z,98815.91
2022-10-09T15:18:49.337Z,98811.13
2022-10-09T15:21:21.705Z,98806.53
2022-10-09T15:23:50.810Z,98802.94
2022-10-09T15:26:17.419Z,98793.50
2022-10-09T15:28:44.884Z,98787.63
2022-10-09T15:31:29.011Z,98786.00
2022-10-09T15:33:57.689Z,98780.19
2022-10-09T15:36:25.115Z,98781.91
2022-10-09T15:38:51.570Z,98775.88
2022-10-09T15:41:31.575Z,98774.28
2022-10-09T15:44:04.707Z,98772.34
2022-10-09T15:46:31.621Z,98768.09
2022-10-09T15:48:58.564Z,98765.28
2022-10-09T15:51:25.713Z,98758.22
2022-10-09T15:53:52.907Z,98757.97
2022-10-09T15:56:24.613Z,98752.31
2022-10-09T15:58:53.035Z,98748.72
2022-10-09T16:01:21.330Z,98753.59
2022-10-09T16:03:48.709Z,98753.06
2022-10-09T16:06:20.249Z,98748.47
2022-10-09T16:08:47.320Z,98753.16
2022-10-09T16:11:20.231Z,98743.28
2022-10-09T16:13:49.893Z,98740.88
2022-10-09T16:16:20.942Z,98737.63
2022-10-09T16:18:48.403Z,98734.22
2022-10-09T16:21:25.015Z,98732.69
2022-10-09T16:23:57.360Z,98729.97
2022-10-09T16:26:27.319Z,98733.84
2022-10-09T16:28:53.960Z,98734.69
2022-10-09T16:31:30.639Z,98734.09
2022-10-09T16:33:57.516Z,98734.94
2022-10-09T16:36:24.012Z,98735.38
2022-10-09T16:38:50.472Z,98737.44
2022-10-09T16:41:20.355Z,98733.97
2022-10-09T16:43:49.693Z,98729.34
2022-10-09T16:46:32.026Z,98737.97
2022-10-09T16:49:00.807Z,98736.81
2022-10-09T16:51:34.402Z,98734.38
2022-10-09T16:54:04.663Z,98744.78
2022-10-09T16:56:37.973Z,98739.66
2022-10-09T16:59:12.006Z,98738.53
2022-10-09T17:01:43.598Z,98739.97
2022-10-09T17:04:11.482Z,98741.84
2022-10-09T17:06:43.963Z,98742.63
2022-10-09T17:09:14.059Z,98747.81
2022-10-09T17:11:41.592Z,98742.69
2022-10-09T17:14:08.126Z,98747.59
2022-10-09T17:16:38.546Z,98745.16
2022-10-09T17:19:06.241Z,98744.81
2022-10-09T17:21:34.660Z,98751.19
2022-10-09T17:24:06.436Z,98740.78
2022-10-09T17:26:33.695Z,98756.66
2022-10-09T17:29:02.011Z,98752.84
2022-10-09T17:31:29.402Z,98759.13
2022-10-09T17:34:02.689Z,98756.91
2022-10-09T17:36:36.563Z,98753.75
2022-10-09T17:39:07.837Z,98758.06
2022-10-09T17:41:34.946Z,98757.66
2022-10-09T17:44:01.645Z,98754.84
2022-10-09T17:46:30.609Z,98754.47
2022-10-09T17:48:59.525Z,98747.47
2022-10-09T17:51:33.235Z,98745.00
2022-10-09T17:54:12.205Z,98744.50
2022-10-09T17:56:39.774Z,98748.78
2022-10-09T17:59:06.631Z,98742.34
2022-10-09T18:01:33.657Z,98738.47
2022-10-09T18:04:00.543Z,98737.13
2022-10-09T18:06:31.753Z,98738.22
2022-10-09T18:08:58.662Z,98731.72
2022-10-09T18:11:27.416Z,98729.34
2022-10-09T18:13:54.400Z,98734.69
2022-10-09T18:16:35.324Z,98731.72
2022-10-09T18:19:13.423Z,98719.84
2022-10-09T18:21:47.315Z,98724.44
2022-10-09T18:24:14.688Z,98725.28
2022-10-09T18:26:43.018Z,98721.91
2022-10-09T18:29:09.510Z,98719.50
2022-10-09T18:31:37.666Z,98724.50
2022-10-09T18:34:04.265Z,98724.91
2022-10-09T18:36:31.747Z,98718.47
2022-10-09T18:39:10.038Z,98718.09
2022-10-09T18:41:37.800Z,98717.44
2022-10-09T18:44:17.294Z,98714.53
2022-10-09T18:46:51.791Z,98716.47
2022-10-09T18:49:22.510Z,98713.84
2022-10-09T18:51:49.443Z,98708.91
2022-10-09T18:54:19.339Z,98713.41
2022-10-09T18:56:46.571Z,98708.41
2022-10-09T18:59:18.163Z,98709.31
2022-10-09T19:01:44.685Z,98709.84
2022-10-09T19:04:11.532Z,98706.59
2022-10-09T19:06:38.118Z,98709.63
2022-10-09T19:09:05.179Z,98699.84
2022-10-09T19:11:34.043Z,98706.75
2022-10-09T19:14:01.759Z,98699.00
2022-10-09T19:16:32.009Z,98698.13
2022-10-09T19:18:58.990Z,98691.50
2022-10-09T19:21:25.901Z,98698.00
2022-10-09T19:23:54.080Z,98696.22
2022-10-09T19:26:22.745Z,98695.72
2022-10-09T19:28:49.234Z,98696.06
2022-10-09T19:31:15.913Z,98694.28
2022-10-09T19:33:43.192Z,98692.50
2022-10-09T19:36:16.089Z,98688.81
2022-10-09T19:38:43.159Z,98684.41
2022-10-09T19:41:13.881Z,98683.97
2022-10-09T19:43:41.396Z,98682.00
2022-10-09T19:46:18.174Z,98685.34
2022-10-09T19:48:45.796Z,98685.09
2022-10-09T19:51:20.213Z,98676.50
2022-10-09T19:53:47.292Z,98681.09
2022-10-09T19:56:26.476Z,98670.63
2022-10-09T19:58:55.194Z,98674.38
2022-10-09T20:01:25.689Z,98669.38
2022-10-09T20:04:07.521Z,98668.41
2022-10-09T20:06:37.809Z,98671.81
2022-10-09T20:09:06.811Z,98669.09
2022-10-09T20:11:34.684Z,98666.03
2022-10-09T20:14:02.053Z,98668.75
2022-10-09T20:16:31.928Z,98674.19
2022-10-09T20:19:01.008Z,98670.28
2022-10-09T20:21:30.800Z,98667.28
2022-10-09T20:23:58.684Z,98670.91
2022-10-09T20:26:25.515Z,98662.34
2022-10-09T20:28:55.412Z,98666.31
2022-10-09T20:31:25.668Z,98660.09
2022-10-09T20:33:54.167Z,98654.50
2022-10-09T20:36:31.045Z,98655.56
2022-10-09T20:39:00.839Z,98648.97
2022-10-09T20:41:30.141Z,98653.75
2022-10-09T20:44:00.356Z,98650.50
2022-10-09T20:46:29.871Z,98656.03
2022-10-09T20:48:56.790Z,98653.34
2022-10-09T20:51:24.184Z,98652.88
2022-10-09T20:53:56.813Z,98647.50
2022-10-09T20:56:26.716Z,98647.72
2022-10-09T20:58:55.057Z,98642.78
2022-10-09T21:01:22.022Z,98640.03
2022-10-09T21:03:49.222Z,98645.56
2022-10-09T21:06:20.749Z,98641.94
2022-10-09T21:08:47.359Z,98648.09
2022-10-09T21:11:19.166Z,98639.56
2022-10-09T21:13:46.543Z,98642.19
2022-10-09T21:16:17.043Z,98635.88
2022-10-09T21:18:43.542Z,98647.41
2022-10-09T21:21:15.216Z,98644.31
2022-10-09T21:23:42.955Z,98644.31
2022-10-09T21:26:18.089Z,98644.84
2022-10-09T21:28:45.869Z,98642.25
2022-10-09T21:31:22.711Z,98645.16
2022-10-09T21:33:49.738Z,98640.03
2022-10-09T21:36:32.920Z,98643.63
2022-10-09T21:38:59.542Z,98641.84
2022-10-09T21:41:26.723Z,98635.34
2022-10-09T21:43:53.416Z,98637.56
2022-10-09T21:46:19.906Z,98641.16
2022-10-09T21:48:46.396Z,98628.69
2022-10-09T21:51:12.881Z,98638.06
2022-10-09T21:53:39.340Z,98630.22
2022-10-09T21:56:06.601Z,98630.66
2022-10-09T21:58:33.108Z,98627.13
2022-10-09T22:01:02.133Z,98625.69
2022-10-09T22:03:32.640Z,98617.28
2022-10-09T22:05:59.933Z,98628.06
2022-10-09T22:08:27.275Z,98620.84
2022-10-09T22:10:53.725Z,98621.28
2022-10-09T22:13:21.569Z,98619.66
2022-10-09T22:15:51.194Z,98615.84
2022-10-09T22:18:19.473Z,98614.28
2022-10-09T22:20:49.253Z,98612.56
2022-10-09T22:23:19.041Z,98605.78
2022-10-09T22:26:00.353Z,98602.16
2022-10-09T22:28:26.911Z,98599.81
2022-10-09T22:31:02.513Z,98588.66
2022-10-09T22:33:29.774Z,98584.38
2022-10-09T22:36:15.011Z,98577.50
2022-10-09T22:38:43.690Z,98572.84
2022-10-09T22:41:16.826Z,98571.56
2022-10-09T22:43:47.739Z,98562.81
2022-10-09T22:46:21.671Z,98570.03
2022-10-09T22:48:48.525Z,98563.25
2022-10-09T22:51:18.541Z,98571.53
2022-10-09T22:53:46.431Z,98575.34
2022-10-09T22:56:22.696Z,98565.38
2022-10-09T22:58:51.640Z,98556.03
2022-10-09T23:01:43.036Z,98561.63
2022-10-09T23:04:13.223Z,98568.44
2022-10-09T23:06:41.498Z,98554.81
2022-10-09T23:09:12.165Z,98558.53
2022-10-09T23:11:38.894Z,98558.59
2022-10-09T23:14:05.709Z,98545.50
2022-10-09T23:16:36.424Z,98546.34
2022-10-09T23:19:07.098Z,98542.25
2022-10-09T23:21:35.179Z,98535.34
2022-10-09T23:24:01.949Z,98539.19
2022-10-09T23:26:32.350Z,98531.50
2022-10-09T23:29:09.482Z,98531.09
2022-10-09T23:31:36.470Z,98539.41
2022-10-09T23:34:05.974Z,98535.91
2022-10-09T23:36:33.081Z,98533.81
2022-10-09T23:39:02.919Z,98533.47
2022-10-09T23:41:30.247Z,98527.25
2022-10-09T23:43:57.075Z,98528.69
2022-10-09T23:46:29.937Z,98534.19
2022-10-09T23:48:56.574Z,98530.94
2022-10-09T23:51:26.069Z,98531.00
2022-10-09T23:53:53.194Z,98531.22
2022-10-09T23:56:25.187Z,98529.63
2022-10-09T23:58:53.709Z,98534.88
